createdAt,value
2022-08-25T00:03:29.554Z,861
2022-08-25T00:08:37.984Z,861
2022-08-25T00:13:39.707Z,861
2022-08-25T00:18:42.124Z,861
2022-08-25T00:23:44.103Z,861
2022-08-25T00:28:46.074Z,861
2022-08-25T00:33:48.352Z,861
2022-08-25T00:38:50.371Z,861
2022-08-25T00:43:52.836Z,861
2022-08-25T00:48:54.835Z,861
2022-08-25T00:53:57.090Z,861
2022-08-25T00:58:59.609Z,861
2022-08-25T01:04:01.953Z,861
2022-08-25T01:09:03.762Z,861
2022-08-25T01:14:05.528Z,860
2022-08-25T01:19:07.876Z,860
2022-08-25T01:24:10.095Z,860
2022-08-25T01:29:12.410Z,860
2022-08-25T01:34:14.413Z,860
2022-08-25T01:39:16.490Z,860
2022-08-25T01:44:18.776Z,860
2022-08-25T01:49:21.310Z,860
2022-08-25T01:54:23.278Z,860
2022-08-25T01:59:25.668Z,860
2022-08-25T02:04:28.227Z,860
2022-08-25T02:09:30.510Z,860
2022-08-25T02:14:32.310Z,860
2022-08-25T02:19:34.673Z,860
2022-08-25T02:24:36.429Z,860
2022-08-25T02:29:38.639Z,861
2022-08-25T02:34:40.909Z,861
2022-08-25T02:39:43.132Z,860
2022-08-25T02:44:45.186Z,860
2022-08-25T02:49:46.854Z,860
2022-08-25T02:54:48.645Z,861
2022-08-25T02:59:50.614Z,861
2022-08-25T03:04:53.147Z,861
2022-08-25T03:09:57.355Z,861
2022-08-25T03:14:59.230Z,861
2022-08-25T03:20:01.337Z,861
2022-08-25T03:25:03.114Z,861
2022-08-25T03:30:05.211Z,861
2022-08-25T03:35:07.259Z,861
2022-08-25T03:40:09.459Z,861
2022-08-25T03:45:17.611Z,861
2022-08-25T03:50:19.835Z,861
2022-08-25T03:55:21.854Z,861
2022-08-25T04:00:23.831Z,861
2022-08-25T04:05:26.765Z,861
2022-08-25T04:10:28.686Z,861
2022-08-25T04:15:30.430Z,861
2022-08-25T04:20:32.597Z,861
2022-08-25T04:25:34.160Z,861
2022-08-25T04:30:35.830Z,861
2022-08-25T04:35:40.861Z,861
2022-08-25T04:40:42.527Z,861
2022-08-25T04:45:44.105Z,861
2022-08-25T04:50:46.593Z,861
2022-08-25T04:55:48.390Z,862
2022-08-25T05:00:50.308Z,862
2022-08-25T05:05:52.395Z,862
2022-08-25T05:10:53.999Z,862
2022-08-25T05:15:55.729Z,862
2022-08-25T05:20:57.448Z,862
2022-08-25T05:25:59.099Z,862
2022-08-25T05:31:02.614Z,862
2022-08-25T05:36:04.117Z,862
2022-08-25T05:41:06.110Z,862
2022-08-25T05:46:08.076Z,862
2022-08-25T05:51:10.821Z,862
2022-08-25T05:56:12.711Z,862
2022-08-25T06:01:14.711Z,862
2022-08-25T06:06:16.879Z,862
2022-08-25T06:11:18.671Z,862
2022-08-25T06:16:20.726Z,862
2022-08-25T06:21:23.629Z,862
2022-08-25T06:26:25.610Z,862
2022-08-25T06:31:27.592Z,862
2022-08-25T06:36:29.903Z,862
2022-08-25T06:41:36.661Z,862
2022-08-25T06:46:39.130Z,862
2022-08-25T06:51:41.133Z,862
2022-08-25T06:56:42.608Z,862
2022-08-25T07:01:44.685Z,862
2022-08-25T07:06:46.697Z,862
2022-08-25T07:11:48.640Z,862
2022-08-25T07:16:50.586Z,862
2022-08-25T07:21:52.668Z,862
2022-08-25T07:26:54.554Z,861
2022-08-25T07:31:56.524Z,861
2022-08-25T07:36:58.569Z,861
2022-08-25T07:42:00.064Z,861
2022-08-25T07:47:03.641Z,861
2022-08-25T07:52:06.795Z,861
2022-08-25T07:57:09.366Z,861
2022-08-25T08:02:16.107Z,861
2022-08-25T08:07:20.872Z,861
2022-08-25T08:12:25.182Z,861
2022-08-25T08:17:26.644Z,861
2022-08-25T08:22:29.016Z,861
2022-08-25T08:27:30.941Z,861
2022-08-25T08:33:05.862Z,860
2022-08-25T08:38:16.144Z,860
2022-08-25T08:43:21.808Z,860
2022-08-25T08:48:27.090Z,860
2022-08-25T08:53:34.254Z,860
2022-08-25T08:58:36.271Z,860
2022-08-25T09:03:39.644Z,860
2022-08-25T09:08:44.562Z,860
2022-08-25T09:13:46.595Z,860
2022-08-25T09:18:50.958Z,860
2022-08-25T09:23:54.605Z,860
2022-08-25T09:28:56.566Z,860
2022-08-25T09:33:58.319Z,859
2022-08-25T09:39:00.111Z,859
2022-08-25T09:44:01.813Z,859
2022-08-25T09:49:03.605Z,859
2022-08-25T09:54:10.708Z,859
2022-08-25T09:59:15.675Z,859
2022-08-25T10:04:20.737Z,859
2022-08-25T10:09:23.042Z,859
2022-08-25T10:14:24.859Z,859
2022-08-25T10:19:26.807Z,859
2022-08-25T10:24:30.019Z,858
2022-08-25T10:29:32.643Z,858
2022-08-25T10:34:35.864Z,858
2022-08-25T10:39:40.525Z,858
2022-08-25T10:44:42.831Z,858
2022-08-25T10:49:44.628Z,858
2022-08-25T10:54:47.227Z,858
2022-08-25T10:59:49.578Z,858
2022-08-25T11:04:51.474Z,857
2022-08-25T11:09:53.509Z,857
2022-08-25T11:14:55.661Z,857
2022-08-25T11:19:57.549Z,857
2022-08-25T11:24:59.704Z,857
2022-08-25T11:30:01.497Z,857
2022-08-25T11:35:03.474Z,857
2022-08-25T11:40:05.596Z,857
2022-08-25T11:45:10.928Z,857
2022-08-25T11:50:13.036Z,856
2022-08-25T11:55:15.194Z,856
2022-08-25T12:00:17.162Z,856
2022-08-25T12:05:19.326Z,856
2022-08-25T12:10:22.671Z,856
2022-08-25T12:15:25.000Z,856
2022-08-25T12:20:26.828Z,856
2022-08-25T12:25:29.074Z,856
2022-08-25T12:30:36.705Z,856
2022-08-25T12:35:38.949Z,856
2022-08-25T12:40:42.004Z,856
2022-08-25T12:45:43.803Z,856
2022-08-25T12:50:45.679Z,856
2022-08-25T12:55:47.506Z,856
2022-08-25T13:00:52.684Z,856
2022-08-25T13:05:54.694Z,856
2022-08-25T13:10:57.735Z,856
2022-08-25T13:15:59.370Z,856
2022-08-25T13:21:01.225Z,856
2022-08-25T13:26:04.170Z,856
2022-08-25T13:31:06.598Z,855
2022-08-25T13:36:08.616Z,855
2022-08-25T13:41:11.982Z,855
2022-08-25T13:46:14.021Z,855
2022-08-25T13:51:17.135Z,855
2022-08-25T13:56:19.159Z,856
2022-08-25T14:01:47.213Z,856
2022-08-25T14:06:51.180Z,856
2022-08-25T14:11:53.028Z,856
2022-08-25T14:16:57.324Z,856
2022-08-25T14:21:59.580Z,856
2022-08-25T14:27:02.019Z,856
2022-08-25T14:32:03.738Z,856
2022-08-25T14:37:05.678Z,856
2022-08-25T14:42:10.320Z,856
2022-08-25T14:47:12.097Z,856
2022-08-25T14:52:13.877Z,856
2022-08-25T14:57:16.258Z,856
2022-08-25T15:02:18.381Z,856
2022-08-25T15:07:21.851Z,856
2022-08-25T15:12:45.961Z,856
2022-08-25T15:17:49.437Z,856
2022-08-25T15:22:52.465Z,856
2022-08-25T15:27:54.428Z,856
2022-08-25T15:32:56.295Z,856
2022-08-25T15:37:58.563Z,856
2022-08-25T15:43:00.121Z,856
2022-08-25T15:48:03.241Z,856
2022-08-25T15:53:05.276Z,856
2022-08-25T15:58:12.375Z,856
2022-08-25T16:03:14.370Z,856
2022-08-25T16:08:19.207Z,856
2022-08-25T16:13:21.756Z,856
2022-08-25T16:18:23.943Z,856
2022-08-25T16:23:25.734Z,856
2022-08-25T16:28:27.963Z,856
2022-08-25T16:33:29.822Z,856
2022-08-25T16:38:34.092Z,856
2022-08-25T16:43:35.632Z,856
2022-08-25T16:48:37.994Z,856
2022-08-25T16:53:39.951Z,856
2022-08-25T16:58:42.292Z,856
2022-08-25T17:03:47.253Z,856
2022-08-25T17:08:48.740Z,856
2022-08-25T17:13:50.638Z,856
2022-08-25T17:18:52.347Z,857
2022-08-25T17:23:56.598Z,857
2022-08-25T17:28:59.397Z,857
2022-08-25T17:34:01.087Z,857
2022-08-25T17:39:02.754Z,857
2022-08-25T17:44:04.742Z,857
2022-08-25T17:49:06.674Z,857
2022-08-25T17:54:08.107Z,857
2022-08-25T17:59:10.177Z,857
2022-08-25T18:04:18.009Z,857
2022-08-25T18:09:21.641Z,857
2022-08-25T18:14:25.586Z,857
2022-08-25T18:19:27.771Z,857
2022-08-25T18:24:29.653Z,857
2022-08-25T18:29:32.452Z,857
2022-08-25T18:34:34.221Z,857
2022-08-25T18:39:37.673Z,857
2022-08-25T18:44:39.230Z,857
2022-08-25T18:49:41.324Z,857
2022-08-25T18:54:43.246Z,857
2022-08-25T18:59:44.877Z,857
2022-08-25T19:04:46.954Z,857
2022-08-25T19:09:48.711Z,857
2022-08-25T19:14:52.987Z,857
2022-08-25T19:19:54.833Z,857
2022-08-25T19:24:56.775Z,857
2022-08-25T19:29:58.855Z,857
2022-08-25T19:35:00.798Z,857
2022-08-25T19:40:02.727Z,857
2022-08-25T19:45:06.282Z,857
2022-08-25T19:50:08.629Z,857
2022-08-25T19:55:11.346Z,857
2022-08-25T20:00:14.037Z,857
2022-08-25T20:05:15.847Z,857
2022-08-25T20:10:26.351Z,857
2022-08-25T20:15:29.289Z,857
2022-08-25T20:20:38.737Z,857
2022-08-25T20:25:41.334Z,857
2022-08-25T20:30:43.299Z,857
2022-08-25T20:35:44.929Z,857
2022-08-25T20:40:47.206Z,857
2022-08-25T20:45:50.524Z,857
2022-08-25T20:50:57.433Z,857
2022-08-25T20:55:59.306Z,857
2022-08-25T21:01:01.232Z,857
2022-08-25T21:06:02.730Z,857
2022-08-25T21:11:04.157Z,857
2022-08-25T21:16:06.206Z,857
2022-08-25T21:21:07.849Z,857
2022-08-25T21:26:10.607Z,857
2022-08-25T21:31:13.720Z,857
2022-08-25T21:36:15.447Z,857
2022-08-25T21:41:16.917Z,857
2022-08-25T21:46:18.643Z,857
2022-08-25T21:51:20.135Z,857
2022-08-25T21:56:23.647Z,857
2022-08-25T22:01:28.918Z,857
2022-08-25T22:06:31.087Z,857
2022-08-25T22:11:33.934Z,857
2022-08-25T22:16:38.113Z,857
2022-08-25T22:21:39.725Z,857
2022-08-25T22:26:41.344Z,857
2022-08-25T22:31:43.761Z,857
2022-08-25T22:36:45.463Z,857
2022-08-25T22:41:48.830Z,857
2022-08-25T22:46:50.766Z,857
2022-08-25T22:51:53.737Z,857
2022-08-25T22:56:57.158Z,857
2022-08-25T23:01:59.643Z,857
2022-08-25T23:07:01.418Z,857
2022-08-25T23:12:03.414Z,857
2022-08-25T23:17:07.458Z,857
2022-08-25T23:22:09.455Z,857
2022-08-25T23:27:12.497Z,857
2022-08-25T23:32:14.653Z,857
2022-08-25T23:37:18.594Z,857
2022-08-25T23:42:20.894Z,857
2022-08-25T23:47:22.950Z,857
2022-08-25T23:52:24.930Z,857
2022-08-25T23:57:26.808Z,857
